UKOOLCLK

Guest
Details From UKOO - ODESA INTL
To LCLK - Larnaca
Flight Number -
Tags generated
Created
Modified
Stats Distance 708 nm / 1,312 km
Max Altitude 35,000 ft / 10,668 m
Waypoints 15
Social Downloads 0
Likes 0
Share VATSIM

Download

Looking for another format? Having issues loading an existing format? Contact us
Advertisement - Login to hide

Notes

Basic altitude profile: - Ascent Rate: 2500ft/min - Ascent Speed: 250kts - Cruise Altitude: 35000ft - Cruise Speed: 420kts - Descent Rate: 1500ft/min - Descent Speed: 250kts Options: - Use NATs: yes - Use PACOTS: yes - Use low airways: yes - Use high airways: yes

Route

UKOO ODS M856 DIGAM UM856 BAG UA28 NEKES LCLK

ID Type Via Altitude Latitude Longitude Leg Dist Tot Dist Heading (true) Name
O UKOO APT - 0 ft / 0 m 46.43234˚ 30.67142˚ - 0 nm - ODESA INTL
ODS VOR - 0 ft / 0 m 46.42999˚ 30.67030˚ 0 nm 0 nm 198° / 198° ODESA VOR-DME
PERED FIX M856 (AWY-LO) 11,100 ft / 3,383 m 45.92748˚ 30.86143˚ 31 nm 31 nm 165° / 165° -
ULGOT FIX M856 (AWY-LO) 15,200 ft / 4,633 m 45.69970˚ 30.95172˚ 14 nm 45 nm 165° / 165° -
DIGAM FIX M856 (AWY-LO) 25,000 ft / 7,620 m 45.25803˚ 31.11006˚ 27 nm 72 nm 166° / 166° -
LAROM FIX UM856 (AWY-HI) 35,000 ft / 10,668 m 44.30969˚ 31.44176˚ 58 nm 131 nm 166° / 166° -
ROMOK FIX UM856 (AWY-HI) 35,000 ft / 10,668 m 43.47301˚ 31.72678˚ 51 nm 183 nm 166° / 166° -
RAKUR FIX UM856 (AWY-HI) 35,000 ft / 10,668 m 42.80000˚ 31.94833˚ 41 nm 224 nm 166° / 167° -
HAKAN FIX UM856 (AWY-HI) 35,000 ft / 10,668 m 41.72333˚ 32.29833˚ 66 nm 291 nm 166° / 167° -
BAG VOR UM856 (AWY-HI) 35,000 ft / 10,668 m 40.06953˚ 32.81039˚ 102 nm 393 nm 167° / 167° BAGLUM VOR-DME
TELVO FIX UA28 (AWY-HI) 35,000 ft / 10,668 m 39.37222˚ 32.92222˚ 42 nm 435 nm 173° / 173° -
OBRUK FIX UA28 (AWY-HI) 35,000 ft / 10,668 m 38.02389˚ 33.11889˚ 81 nm 517 nm 173° / 174° -
MUT VOR UA28 (AWY-HI) 27,500 ft / 8,382 m 36.86417˚ 33.29222˚ 70 nm 587 nm 173° / 173° MUT VOR-DME
NEKES FIX UA28 (AWY-HI) 28,500 ft / 8,687 m 36.15361˚ 33.28472˚ 42 nm 629 nm 180° / 180° -
O LCLK APT - 0 ft / 0 m 34.87512˚ 33.62483˚ 78 nm 708 nm 168° / 168° Larnaca

Altitude Profile

Advertisement - Login to hide

Weather


0- 5 10 15 20 25 30 35+ Temperature / ° C

Clouds and Precipitation
Forecast for 2017-12-13 00:00 UTC. Updated an hour ago

Ground ~20,000 ft ~40,000 ft Winds

UKOO

Details ICAO UKOO (ODS)
Name ODESA INTL
Region Ukraine
Timezone Europe/Kiev (UTC+2.0)
Stats Elevation 172 ft / 52 m (AMSL)
Location 46.432337° 30.671421°
Runways 3
Magnetic Variation 6.662° E

METAR

UKOO 130000Z 18002MPS 4700 BR SKC 02/02 Q1014 R16/090060 TEMPO 0300 FG

Decode

TAF

TAF UKOO 122303Z 1300/1324 22003MPS 2100 BR BKN007 SCT017CB TEMPO 1300/1307 0300 FG VV002 BECMG 1307/1308 23006G13MPS 6000 NSW TX10/1312Z TN01/1304Z

Decode

Departure Runways

ID Width Length Bearing (true) Bearing (mag) Surface Threshold Offset Overrun Length
07 197 ft / 60 m 1,812 ft / 552 m 75.38° 68.72° Grass 0 ft / 0 m 0 ft / 0 m
16 184 ft / 56 m 9,186 ft / 2,800 m 163.40° 156.74° Asphalt 0 ft / 0 m 0 ft / 0 m
18 190 ft / 58 m 2,951 ft / 899 m 181.62° 174.96° Asphalt 0 ft / 0 m 0 ft / 0 m
25 197 ft / 60 m 1,812 ft / 552 m 255.38° 248.72° Grass 0 ft / 0 m 0 ft / 0 m
34 184 ft / 56 m 9,186 ft / 2,800 m 343.41° 336.75° Asphalt 0 ft / 0 m 0 ft / 0 m
36 190 ft / 58 m 2,951 ft / 899 m 1.62° 354.96° Asphalt 0 ft / 0 m 0 ft / 0 m

LCLK

Details ICAO LCLK (LCA)
Name Larnaca
Region Cyprus
Timezone Asia/Nicosia (UTC+2.0)
Stats Elevation 8 ft / 2 m (AMSL)
Location 34.875115° 33.624832°
Runways 1
Magnetic Variation 4.990° E

METAR

LCLK 130000Z 31006KT CAVOK 12/09 Q1017 NOSIG

Decode

TAF

TAF LCLK 122330Z 1300/1324 33009KT 9999 FEW030= TAF LCPH 122330Z 1300/1324 02007KT 9999 BECMG 1308/1311 32015KT BECMG 1316/1319 02007KT

Decode

Destination Runways

ID Width Length Bearing (true) Bearing (mag) Surface Threshold Offset Overrun Length
04 148 ft / 45 m 9,771 ft / 2,978 m 45.15° 40.16° Asphalt 0 ft / 0 m 210 ft / 64 m
22 148 ft / 45 m 9,771 ft / 2,978 m 225.17° 220.18° Asphalt 575 ft / 175 m 0 ft / 0 m

Approach Navaids

Runway Type Ident Frequency Range Bearing (true) Bearing (mag) Slope Elevation
22 Localiser ILC 110.30 MHz 18 nm / 33 km 225.17° 220.18° - 8 ft / 2 m (AMSL)
22 Glidescope ILC 110.30 MHz 10 nm / 19 km 225.16° 220.17° 2.75° 24 ft / 7 m (AMSL)
22 DME ILC 110.30 MHz 18 nm / 33 km - - - 20 ft / 6 m (AMSL)